Saint Francis, AR (72464)

11:46 PM CDT on September 01, 2015 (GMT -0500)
Peach Orchard | | Change Station
CLOSE
Current Station
Personal Weather Station
Location: Gideon, MO
Elevation: 263 ft
Nearby Weather Stations

Elev 263 ft 36.37 °N, 89.94 °W | Updated 1 minute ago

Clear
Clear
76.4 °F
Feels Like 77 °F
N
0.0
Wind Variable Wind from ESE
Gusts 0.0 mph

Today
High -- | Low -- °F
--% Chance of Precip.
Yesterday
High -- | Low -- °F
Precip. -- in
6:31 AM 7:28 PM
Waning Gibbous, 83% visible
Pressure 30.07 in
Visibility 8.0 miles
Clouds Clear
Heat Index 77 °F
Dew Point 71 °F
Humidity 84%
Rainfall 0.00 in
Snow Depth Not available.
UV 0 out of 12
Pollen 10.50 out of 12
Air Quality Not available.
Flu Activity Not available.
METAR KPOF 020353Z AUTO 00000KT 8SM CLR 23/21 A3008 RMK AO2 SLP181 T02280211
Pressure 30.07 in
Visibility 8.0 miles
Clouds Clear
Heat Index 77 °F
Dew Point 71 °F
Humidity 84%
Rainfall 0.00 in
Snow Depth Not available.
UV 0 out of 12
Pollen 10.50 out of 12
Air Quality Not available.
Flu Activity Not available.
METAR KPOF 020353Z AUTO 00000KT 8SM CLR 23/21 A3008 RMK AO2 SLP181 T02280211

10-Day Weather Forecast

×

Almanac

Astronomy

Sep. 01, 2015 Rise Set
Actual Time
Civil Twilight
Nautical Twilight
Astronomical Twilight
Moon
Length of Visible Light
Length of Day
Tomorrow will be .
, % of the Moon is Illuminated

Today's Extremes

State Highs State Lows

Community

WunderPhotos

Upload Photos

1,851,704 photos uploaded!

WunderBlogs® & News

Nearby

Air Quality

  Air Quality AQ Index Pollutant
Not available.

Snow Depth

Station Depth Elevation

Earthquake Activity

City Distance Mag. Time & Date
Minimum magnitude displayed is 2.5.

Coastal Water Temperatures

Place Temperature

Stations

Nearby Weather Stations

Station Location Temp. Windchill Dew Point Humidity Wind Precip. Elev Updated Type